BIENVENIDO A Fly Ecuador Virtual

Fly Ecuador Virtual es una organización creada con el fin de brindar una plataforma que permita a los pilotos virtuales, principalmente ecuatorianos, tener un lugar donde registrar sus horas de vuelo, sus certificados de conocimiento adquiridos, las rutas que han volado y los destinos que han visitado. Así mismo, se busca ayudar a todos los pilotos a expandir su conocimiento sobre el mundo de la aviación real y virtual por medio de publicaciones, foros y cursos en línea.
A diferencia de las aerolíneas virtuales tradicionales, Fly Ecuador Virtual no simula las operaciones de una aerolínea del mundo real en específico. Un miembro de Fly Ecuador Virtual tiene toda la libertad de volar cualquier aeronave que opere en el espacio aéreo ecuatoriano real, en cualquier ruta, sea esta nacional o internacional, IFR o VFR, aeronaves monomotor, multimotor o helicópteros. Todo esto con el objetivo de expandir las operaciones virtuales dentro del espacio aéreo ecuatoriano, creando una comunidad en la que se compartan conocimientos y experiencias que beneficien a todos sus integrantes.
El crecimiento de Fly Ecuador Virtual depende de la participación conjunta de todos sus miembros, por este motivo se incentiva la participación en línea a través de los diferentes medios descritos más adelante en este sitio web.

ESTADÍSTICAS

Pilotos 61
Horas totales: 4393.82
Vuelos totales 1629

ÚLTIMOS VUELOS

IndicativoPilotoOrigenDestinoFechaTiempo de vuelo
ECU074Emilio MayhuaSAMESANT20-04-20181.08
ECU024Arturo CarvajalSEQMSEGU16-04-20180.63
ECU070Luis JaramilloRJTTCYVR15-04-20189.01
ECU025Antonio NuñezSEQMSECU13-04-20180.68
ECU025Antonio NuñezSEGUSEQM13-04-20180.55

NUEVOS PILOTOS

PilotoFecha
ECU079-Vicente Torres13-07-2017
ECU077-Fernando Flores Valarezo06-07-2017
ECU078-Ricardo Guzman05-07-2017
ECU075-FREDDY RIVERA29-06-2017
ECU074-Emilio Mayhua28-06-2017

PRÓXIMOS EVENTOS y METARS

EventoFecha
METAR
SEGU - José Joaquín de Olmedo International Airport, Guayaquil, ECU
Distance from station: N 0mi, 0km
Updated: Fri, 20-Apr-2018 9:00am PDT
Clear
Clear
 Wind from SSW
Wind: SSW 8 mph , 13 km/h
Temperature: 90°F , 32°C
Heat Index: 94°F , 34°C
Dew Point: 68°F , 20°C
Humidity: 49%
Barometer: 29.8 inHg , 1009 hPa
Summary: Clear
Visibility: greater than 7 miles , 10 km
2018/04/20 16:00 SEGU 201600Z 20007KT 170V250 CAVOK 32/20 Q1009 NOSIG RMK A2981
 
SEQM - Aeropuerto Internacional Mariscal Sucre, ECU
Distance from station: NE 120mi, 200km
Updated: Fri, 20-Apr-2018 9:00am PDT
Few Clouds
Few Clouds
 Wind from W
Wind: W 5 mph , 7 km/h
Temperature: 73°F , 23°C
Dew Point: 45°F , 7°C
Humidity: 36%
Barometer: 30.27 inHg , 1025 hPa
Clouds: Few Clouds
Visibility: 6 miles , 10 km
Cloud details: Few Clouds 3300 ft
2018/04/20 16:00 SEQM 201600Z 28004KT 9999 FEW033 23/07 Q1025 NOSIG RMK A3027
 
SECU - Mariscal Lamar Airpor, ECU
Distance from station: ENE 80mi, 120km
Updated: Fri, 20-Apr-2018 9:00am PDT
Partly Cloudy
Partly Cloudy
 Wind from NE
Wind: NE 9 mph , 15 km/h
Temperature: 66°F , 19°C
Dew Point: 50°F , 10°C
Humidity: 56%
Barometer: 30.33 inHg , 1027 hPa
Clouds: Partly Cloudy
Visibility: 6 miles , 10 km
Cloud details: Mostly Cloudy 4000 ft
Partly Cloudy 10000 ft
2018/04/20 16:00 SECU 201600Z 05008KT 9999 BKN040 SCT100 19/10 Q1027
 
SELT - Cotopaxi International Airport, ECU
Distance from station: NW 21mi, 34km
Updated: Fri, 20-Apr-2018 9:00am PDT
Mostly Cloudy
Mostly Cloudy
 Wind from S
Wind: S 16 mph , 26 km/h
Temperature: 59°F , 15°C
Dew Point: 50°F , 10°C
Humidity: 72%
Barometer: 30.45 inHg , 1031 hPa
Clouds: Mostly Cloudy
Visibility: 6 miles , 10 km
Cloud details: Partly Cloudy 2000 ft
Mostly Cloudy 3000 ft
2018/04/20 16:00 SELT 201600Z 18014KT 9999 SCT020 BKN030 15/10 Q1031
 
SEMT - Eloy Alfaro International Airport, ECU
Distance from station: SSE 70mi, 100km
Updated: Fri, 20-Apr-2018 8:00am PDT
Partly Cloudy
Partly Cloudy
 Wind from SW
Wind: SW 6 mph , 9 km/h
Temperature: 82°F , 28°C
Heat Index: 87°F , 31°C
Dew Point: 73°F , 23°C
Humidity: 74%
Barometer: 29.85 inHg , 1011 hPa
Clouds: Partly Cloudy
Visibility: 6 miles , 10 km
Cloud details: Partly Cloudy 2000 ft
Partly Cloudy 12000 ft
2018/04/20 15:00 SEMT 201500Z 23005KT 9999 SCT020 SCT120 28/23 Q1011 RMK A2987

Metar display script from Saratoga-Weather.org

TWEETS

NOTAMS

NOTAMFecha